sensor_id;sensor_type;location;lat;lon;timestamp;temperature;humidity
29813;DHT22;16707;48.106;11.548;2022-12-07T00:01:15;3.60;99.90
29813;DHT22;16707;48.106;11.548;2022-12-07T00:03:47;3.60;99.90
29813;DHT22;16707;48.106;11.548;2022-12-07T00:06:18;3.60;99.90
29813;DHT22;16707;48.106;11.548;2022-12-07T00:08:49;3.60;99.90
29813;DHT22;16707;48.106;11.548;2022-12-07T00:11:21;3.70;99.90
29813;DHT22;16707;48.106;11.548;2022-12-07T00:13:51;3.60;99.90
29813;DHT22;16707;48.106;11.548;2022-12-07T00:16:20;3.60;99.90
29813;DHT22;16707;48.106;11.548;2022-12-07T00:18:50;3.60;99.90
29813;DHT22;16707;48.106;11.548;2022-12-07T00:21:21;3.60;99.90
29813;DHT22;16707;48.106;11.548;2022-12-07T00:23:50;3.60;99.90
29813;DHT22;16707;48.106;11.548;2022-12-07T00:26:19;3.60;99.90
29813;DHT22;16707;48.106;11.548;2022-12-07T00:28:47;3.50;99.90
29813;DHT22;16707;48.106;11.548;2022-12-07T00:31:17;3.50;99.90
29813;DHT22;16707;48.106;11.548;2022-12-07T00:33:49;3.60;99.90
29813;DHT22;16707;48.106;11.548;2022-12-07T00:36:17;3.60;99.90
29813;DHT22;16707;48.106;11.548;2022-12-07T00:38:47;3.60;99.90
29813;DHT22;16707;48.106;11.548;2022-12-07T00:41:21;3.60;99.90
29813;DHT22;16707;48.106;11.548;2022-12-07T00:43:49;3.60;99.90
29813;DHT22;16707;48.106;11.548;2022-12-07T00:46:21;3.60;99.90
29813;DHT22;16707;48.106;11.548;2022-12-07T00:48:49;3.50;99.90
29813;DHT22;16707;48.106;11.548;2022-12-07T00:51:18;3.40;99.90
29813;DHT22;16707;48.106;11.548;2022-12-07T00:53:46;3.50;99.90
29813;DHT22;16707;48.106;11.548;2022-12-07T00:56:14;3.40;99.90
29813;DHT22;16707;48.106;11.548;2022-12-07T00:58:42;3.40;99.90
29813;DHT22;16707;48.106;11.548;2022-12-07T01:01:10;3.40;99.90
29813;DHT22;16707;48.106;11.548;2022-12-07T01:03:39;3.30;99.90
29813;DHT22;16707;48.106;11.548;2022-12-07T01:06:06;3.40;99.90
29813;DHT22;16707;48.106;11.548;2022-12-07T01:08:33;3.30;99.90
29813;DHT22;16707;48.106;11.548;2022-12-07T01:11:05;3.30;99.90
29813;DHT22;16707;48.106;11.548;2022-12-07T01:13:33;3.30;99.90
29813;DHT22;16707;48.106;11.548;2022-12-07T01:16:02;3.30;99.90
29813;DHT22;16707;48.106;11.548;2022-12-07T01:18:36;3.30;99.90
29813;DHT22;16707;48.106;11.548;2022-12-07T01:21:05;3.30;99.90
29813;DHT22;16707;48.106;11.548;2022-12-07T01:23:33;3.30;99.90
29813;DHT22;16707;48.106;11.548;2022-12-07T01:26:13;3.30;99.90
29813;DHT22;16707;48.106;11.548;2022-12-07T01:28:41;3.40;99.90
29813;DHT22;16707;48.106;11.548;2022-12-07T01:31:10;3.50;99.90
29813;DHT22;16707;48.106;11.548;2022-12-07T01:33:38;3.50;99.90
29813;DHT22;16707;48.106;11.548;2022-12-07T01:36:12;3.40;99.90
29813;DHT22;16707;48.106;11.548;2022-12-07T01:38:40;3.50;99.90
29813;DHT22;16707;48.106;11.548;2022-12-07T01:41:09;3.50;99.90
29813;DHT22;16707;48.106;11.548;2022-12-07T01:43:36;3.40;99.90
29813;DHT22;16707;48.106;11.548;2022-12-07T01:46:04;3.30;99.90
29813;DHT22;16707;48.106;11.548;2022-12-07T01:48:33;3.20;99.90
29813;DHT22;16707;48.106;11.548;2022-12-07T01:51:08;3.40;99.90
29813;DHT22;16707;48.106;11.548;2022-12-07T01:53:39;3.30;99.90
29813;DHT22;16707;48.106;11.548;2022-12-07T01:56:13;3.30;99.90
29813;DHT22;16707;48.106;11.548;2022-12-07T01:58:43;3.30;99.90
29813;DHT22;16707;48.106;11.548;2022-12-07T02:01:11;3.20;99.90
29813;DHT22;16707;48.106;11.548;2022-12-07T02:03:40;3.30;99.90
29813;DHT22;16707;48.106;11.548;2022-12-07T02:06:13;3.30;99.90
29813;DHT22;16707;48.106;11.548;2022-12-07T02:08:49;3.20;99.90
29813;DHT22;16707;48.106;11.548;2022-12-07T02:11:17;3.20;99.90
29813;DHT22;16707;48.106;11.548;2022-12-07T02:13:50;3.20;99.90
29813;DHT22;16707;48.106;11.548;2022-12-07T02:16:29;3.20;99.90
29813;DHT22;16707;48.106;11.548;2022-12-07T02:19:22;3.10;99.90
29813;DHT22;16707;48.106;11.548;2022-12-07T02:21:56;3.20;99.90
29813;DHT22;16707;48.106;11.548;2022-12-07T02:24:40;3.20;99.90
29813;DHT22;16707;48.106;11.548;2022-12-07T02:27:36;3.20;99.90
29813;DHT22;16707;48.106;11.548;2022-12-07T02:30:07;3.10;99.90
29813;DHT22;16707;48.106;11.548;2022-12-07T02:32:42;3.10;99.90
29813;DHT22;16707;48.106;11.548;2022-12-07T02:35:18;3.20;99.90
29813;DHT22;16707;48.106;11.548;2022-12-07T02:37:53;3.20;99.90
29813;DHT22;16707;48.106;11.548;2022-12-07T02:40:25;3.20;99.90
29813;DHT22;16707;48.106;11.548;2022-12-07T02:42:58;3.20;99.90
29813;DHT22;16707;48.106;11.548;2022-12-07T02:45:38;3.10;99.90
29813;DHT22;16707;48.106;11.548;2022-12-07T02:48:14;3.10;99.90
29813;DHT22;16707;48.106;11.548;2022-12-07T02:50:48;3.10;99.90
29813;DHT22;16707;48.106;11.548;2022-12-07T02:53:35;3.10;99.90
29813;DHT22;16707;48.106;11.548;2022-12-07T02:56:15;3.10;99.90
29813;DHT22;16707;48.106;11.548;2022-12-07T02:58:57;3.10;99.90
29813;DHT22;16707;48.106;11.548;2022-12-07T03:01:39;3.10;99.90
29813;DHT22;16707;48.106;11.548;2022-12-07T03:04:18;3.10;99.90
29813;DHT22;16707;48.106;11.548;2022-12-07T03:06:50;3.20;99.90
29813;DHT22;16707;48.106;11.548;2022-12-07T03:09:28;3.20;99.90
29813;DHT22;16707;48.106;11.548;2022-12-07T03:12:03;3.20;99.90
29813;DHT22;16707;48.106;11.548;2022-12-07T03:14:44;3.20;99.90
29813;DHT22;16707;48.106;11.548;2022-12-07T03:17:16;3.20;99.90
29813;DHT22;16707;48.106;11.548;2022-12-07T03:19:48;3.10;99.90
29813;DHT22;16707;48.106;11.548;2022-12-07T03:22:16;3.10;99.90
29813;DHT22;16707;48.106;11.548;2022-12-07T03:24:47;3.10;99.90
29813;DHT22;16707;48.106;11.548;2022-12-07T03:27:18;3.10;99.90
29813;DHT22;16707;48.106;11.548;2022-12-07T03:29:49;3.10;99.90
29813;DHT22;16707;48.106;11.548;2022-12-07T03:32:23;3.20;99.90
29813;DHT22;16707;48.106;11.548;2022-12-07T03:34:54;3.10;99.90
29813;DHT22;16707;48.106;11.548;2022-12-07T03:37:33;3.10;99.90
29813;DHT22;16707;48.106;11.548;2022-12-07T03:40:06;3.10;99.90
29813;DHT22;16707;48.106;11.548;2022-12-07T03:42:40;3.20;99.90
29813;DHT22;16707;48.106;11.548;2022-12-07T03:45:08;3.20;99.90
29813;DHT22;16707;48.106;11.548;2022-12-07T03:47:43;3.10;99.90
29813;DHT22;16707;48.106;11.548;2022-12-07T03:50:29;3.20;99.90
29813;DHT22;16707;48.106;11.548;2022-12-07T03:53:02;3.20;99.90
29813;DHT22;16707;48.106;11.548;2022-12-07T03:55:34;3.20;99.90
29813;DHT22;16707;48.106;11.548;2022-12-07T03:58:10;3.20;99.90
29813;DHT22;16707;48.106;11.548;2022-12-07T04:00:38;3.20;99.90
29813;DHT22;16707;48.106;11.548;2022-12-07T04:03:21;3.20;99.90
29813;DHT22;16707;48.106;11.548;2022-12-07T04:05:49;3.30;99.90
29813;DHT22;16707;48.106;11.548;2022-12-07T04:08:16;3.30;99.90
29813;DHT22;16707;48.106;11.548;2022-12-07T04:10:49;3.30;99.90
29813;DHT22;16707;48.106;11.548;2022-12-07T04:13:16;3.30;99.90
29813;DHT22;16707;48.106;11.548;2022-12-07T04:15:44;3.30;99.90
29813;DHT22;16707;48.106;11.548;2022-12-07T04:18:15;3.20;99.90
29813;DHT22;16707;48.106;11.548;2022-12-07T04:20:42;3.30;99.90
29813;DHT22;16707;48.106;11.548;2022-12-07T04:23:09;3.20;99.90
29813;DHT22;16707;48.106;11.548;2022-12-07T04:25:36;3.20;99.90
29813;DHT22;16707;48.106;11.548;2022-12-07T04:28:04;3.30;99.90
29813;DHT22;16707;48.106;11.548;2022-12-07T04:30:33;3.30;99.90
29813;DHT22;16707;48.106;11.548;2022-12-07T04:33:00;3.30;99.90
29813;DHT22;16707;48.106;11.548;2022-12-07T04:35:28;3.20;99.90
29813;DHT22;16707;48.106;11.548;2022-12-07T04:37:55;3.20;99.90
29813;DHT22;16707;48.106;11.548;2022-12-07T04:40:22;3.20;99.90
29813;DHT22;16707;48.106;11.548;2022-12-07T04:42:52;3.20;99.90
29813;DHT22;16707;48.106;11.548;2022-12-07T04:45:20;3.20;99.90
29813;DHT22;16707;48.106;11.548;2022-12-07T04:47:47;3.20;99.90
29813;DHT22;16707;48.106;11.548;2022-12-07T04:50:14;3.20;99.90
29813;DHT22;16707;48.106;11.548;2022-12-07T04:52:42;3.20;99.90
29813;DHT22;16707;48.106;11.548;2022-12-07T04:55:10;3.20;99.90
29813;DHT22;16707;48.106;11.548;2022-12-07T04:57:37;3.10;99.90
29813;DHT22;16707;48.106;11.548;2022-12-07T05:00:09;3.00;99.90
29813;DHT22;16707;48.106;11.548;2022-12-07T05:02:36;3.10;99.90
29813;DHT22;16707;48.106;11.548;2022-12-07T05:05:04;3.10;99.90
29813;DHT22;16707;48.106;11.548;2022-12-07T05:07:31;3.10;99.90
29813;DHT22;16707;48.106;11.548;2022-12-07T05:10:00;3.10;99.90
29813;DHT22;16707;48.106;11.548;2022-12-07T05:12:27;3.10;99.90
29813;DHT22;16707;48.106;11.548;2022-12-07T05:14:54;3.00;99.90
29813;DHT22;16707;48.106;11.548;2022-12-07T05:17:21;2.90;99.90
29813;DHT22;16707;48.106;11.548;2022-12-07T05:19:48;3.00;99.90
29813;DHT22;16707;48.106;11.548;2022-12-07T05:22:17;2.90;99.90
29813;DHT22;16707;48.106;11.548;2022-12-07T05:24:44;2.90;99.90
29813;DHT22;16707;48.106;11.548;2022-12-07T05:27:17;2.80;99.90
29813;DHT22;16707;48.106;11.548;2022-12-07T05:29:47;2.80;99.90
29813;DHT22;16707;48.106;11.548;2022-12-07T05:32:17;2.80;99.90
29813;DHT22;16707;48.106;11.548;2022-12-07T05:34:44;2.80;99.90
29813;DHT22;16707;48.106;11.548;2022-12-07T05:37:11;2.80;99.90
29813;DHT22;16707;48.106;11.548;2022-12-07T05:39:38;2.80;99.90
29813;DHT22;16707;48.106;11.548;2022-12-07T05:42:08;2.80;99.90
29813;DHT22;16707;48.106;11.548;2022-12-07T05:44:45;2.70;99.90
29813;DHT22;16707;48.106;11.548;2022-12-07T05:47:13;2.90;99.90
29813;DHT22;16707;48.106;11.548;2022-12-07T05:49:40;2.80;99.90
29813;DHT22;16707;48.106;11.548;2022-12-07T05:52:07;2.90;99.90
29813;DHT22;16707;48.106;11.548;2022-12-07T05:54:37;2.80;99.90
29813;DHT22;16707;48.106;11.548;2022-12-07T05:57:04;2.80;99.90
29813;DHT22;16707;48.106;11.548;2022-12-07T05:59:34;2.80;99.90
29813;DHT22;16707;48.106;11.548;2022-12-07T06:02:03;2.70;99.90
29813;DHT22;16707;48.106;11.548;2022-12-07T06:04:33;2.80;99.90
29813;DHT22;16707;48.106;11.548;2022-12-07T06:07:03;2.80;99.90
29813;DHT22;16707;48.106;11.548;2022-12-07T06:09:31;2.80;99.90
29813;DHT22;16707;48.106;11.548;2022-12-07T06:11:58;2.80;99.90
29813;DHT22;16707;48.106;11.548;2022-12-07T06:14:45;2.70;99.90
29813;DHT22;16707;48.106;11.548;2022-12-07T06:17:17;2.80;99.90
29813;DHT22;16707;48.106;11.548;2022-12-07T06:19:44;2.80;99.90
29813;DHT22;16707;48.106;11.548;2022-12-07T06:22:11;2.80;99.90
29813;DHT22;16707;48.106;11.548;2022-12-07T06:24:39;2.70;99.90
29813;DHT22;16707;48.106;11.548;2022-12-07T06:27:06;2.70;99.90
29813;DHT22;16707;48.106;11.548;2022-12-07T06:29:33;2.70;99.90
29813;DHT22;16707;48.106;11.548;2022-12-07T06:32:03;2.70;99.90
29813;DHT22;16707;48.106;11.548;2022-12-07T06:34:32;2.70;99.90
29813;DHT22;16707;48.106;11.548;2022-12-07T06:36:58;2.70;99.90
29813;DHT22;16707;48.106;11.548;2022-12-07T06:39:30;2.80;99.90
29813;DHT22;16707;48.106;11.548;2022-12-07T06:42:00;2.70;99.90
29813;DHT22;16707;48.106;11.548;2022-12-07T06:44:27;2.70;99.90
29813;DHT22;16707;48.106;11.548;2022-12-07T06:46:57;2.80;99.90
29813;DHT22;16707;48.106;11.548;2022-12-07T06:49:27;2.70;99.90
29813;DHT22;16707;48.106;11.548;2022-12-07T06:51:58;2.70;99.90
29813;DHT22;16707;48.106;11.548;2022-12-07T06:54:30;2.80;99.90
29813;DHT22;16707;48.106;11.548;2022-12-07T06:56:57;2.80;99.90
29813;DHT22;16707;48.106;11.548;2022-12-07T06:59:24;2.80;99.90
29813;DHT22;16707;48.106;11.548;2022-12-07T07:01:51;2.70;99.90
29813;DHT22;16707;48.106;11.548;2022-12-07T07:04:18;2.80;99.90
29813;DHT22;16707;48.106;11.548;2022-12-07T07:06:45;2.70;99.90
29813;DHT22;16707;48.106;11.548;2022-12-07T07:09:19;2.70;99.90
29813;DHT22;16707;48.106;11.548;2022-12-07T07:11:45;2.80;99.90
29813;DHT22;16707;48.106;11.548;2022-12-07T07:14:13;2.80;99.90
29813;DHT22;16707;48.106;11.548;2022-12-07T07:16:44;2.80;99.90
29813;DHT22;16707;48.106;11.548;2022-12-07T07:19:11;2.80;99.90
29813;DHT22;16707;48.106;11.548;2022-12-07T07:21:41;2.80;99.90
29813;DHT22;16707;48.106;11.548;2022-12-07T07:24:11;2.70;99.90
29813;DHT22;16707;48.106;11.548;2022-12-07T07:26:39;2.70;99.90
29813;DHT22;16707;48.106;11.548;2022-12-07T07:29:06;2.70;99.90
29813;DHT22;16707;48.106;11.548;2022-12-07T07:31:33;2.70;99.90
29813;DHT22;16707;48.106;11.548;2022-12-07T07:34:01;2.70;99.90
29813;DHT22;16707;48.106;11.548;2022-12-07T07:36:33;2.80;99.90
29813;DHT22;16707;48.106;11.548;2022-12-07T07:39:02;2.80;99.90
29813;DHT22;16707;48.106;11.548;2022-12-07T07:41:33;3.00;99.90
29813;DHT22;16707;48.106;11.548;2022-12-07T07:44:01;3.00;99.90
29813;DHT22;16707;48.106;11.548;2022-12-07T07:46:29;3.00;99.90
29813;DHT22;16707;48.106;11.548;2022-12-07T07:48:58;3.10;99.90
29813;DHT22;16707;48.106;11.548;2022-12-07T07:51:25;3.10;99.90
29813;DHT22;16707;48.106;11.548;2022-12-07T07:53:52;3.10;99.90
29813;DHT22;16707;48.106;11.548;2022-12-07T07:56:19;3.10;99.90
29813;DHT22;16707;48.106;11.548;2022-12-07T07:58:47;3.10;99.90
29813;DHT22;16707;48.106;11.548;2022-12-07T08:01:15;3.20;99.90
29813;DHT22;16707;48.106;11.548;2022-12-07T08:03:42;3.30;99.90
29813;DHT22;16707;48.106;11.548;2022-12-07T08:06:10;3.60;99.90
29813;DHT22;16707;48.106;11.548;2022-12-07T08:08:37;4.10;99.90
29813;DHT22;16707;48.106;11.548;2022-12-07T08:11:05;4.40;99.90
29813;DHT22;16707;48.106;11.548;2022-12-07T08:13:32;4.10;99.90
29813;DHT22;16707;48.106;11.548;2022-12-07T08:16:03;3.90;99.90
29813;DHT22;16707;48.106;11.548;2022-12-07T08:18:35;3.80;99.90
29813;DHT22;16707;48.106;11.548;2022-12-07T08:21:03;3.70;99.90
29813;DHT22;16707;48.106;11.548;2022-12-07T08:23:30;3.70;99.90
29813;DHT22;16707;48.106;11.548;2022-12-07T08:26:00;3.70;99.90
29813;DHT22;16707;48.106;11.548;2022-12-07T08:28:31;3.60;99.90
29813;DHT22;16707;48.106;11.548;2022-12-07T08:30:59;3.70;99.90
29813;DHT22;16707;48.106;11.548;2022-12-07T08:33:27;3.60;99.90
29813;DHT22;16707;48.106;11.548;2022-12-07T08:36:01;3.60;99.90
29813;DHT22;16707;48.106;11.548;2022-12-07T08:38:28;3.70;99.90
29813;DHT22;16707;48.106;11.548;2022-12-07T08:41:00;3.70;99.90
29813;DHT22;16707;48.106;11.548;2022-12-07T08:43:27;3.70;99.90
29813;DHT22;16707;48.106;11.548;2022-12-07T08:45:59;3.70;99.90
29813;DHT22;16707;48.106;11.548;2022-12-07T08:48:30;3.90;99.90
29813;DHT22;16707;48.106;11.548;2022-12-07T08:51:01;4.00;99.90
29813;DHT22;16707;48.106;11.548;2022-12-07T08:53:29;4.00;99.90
29813;DHT22;16707;48.106;11.548;2022-12-07T08:55:57;4.00;99.90
29813;DHT22;16707;48.106;11.548;2022-12-07T08:58:24;4.10;99.90
29813;DHT22;16707;48.106;11.548;2022-12-07T09:00:51;4.20;99.90
29813;DHT22;16707;48.106;11.548;2022-12-07T09:03:18;4.20;99.90
29813;DHT22;16707;48.106;11.548;2022-12-07T09:05:45;4.30;99.90
29813;DHT22;16707;48.106;11.548;2022-12-07T09:08:14;4.20;99.90
29813;DHT22;16707;48.106;11.548;2022-12-07T09:10:41;4.40;99.90
29813;DHT22;16707;48.106;11.548;2022-12-07T09:13:09;4.40;99.90
29813;DHT22;16707;48.106;11.548;2022-12-07T09:15:38;4.40;99.90
29813;DHT22;16707;48.106;11.548;2022-12-07T09:18:05;4.50;99.90
29813;DHT22;16707;48.106;11.548;2022-12-07T09:20:32;4.50;99.90
29813;DHT22;16707;48.106;11.548;2022-12-07T09:22:59;4.60;99.90
29813;DHT22;16707;48.106;11.548;2022-12-07T09:25:28;4.60;99.90
29813;DHT22;16707;48.106;11.548;2022-12-07T09:27:56;4.70;99.90
29813;DHT22;16707;48.106;11.548;2022-12-07T09:30:23;4.80;99.90
29813;DHT22;16707;48.106;11.548;2022-12-07T09:32:52;5.00;99.90
29813;DHT22;16707;48.106;11.548;2022-12-07T09:35:19;4.90;99.90
29813;DHT22;16707;48.106;11.548;2022-12-07T09:37:46;4.90;99.90
29813;DHT22;16707;48.106;11.548;2022-12-07T09:42:45;4.90;99.90
29813;DHT22;16707;48.106;11.548;2022-12-07T09:45:15;5.00;99.90
29813;DHT22;16707;48.106;11.548;2022-12-07T09:47:43;5.10;99.90
29813;DHT22;16707;48.106;11.548;2022-12-07T09:50:14;5.30;99.90
29813;DHT22;16707;48.106;11.548;2022-12-07T09:52:46;5.40;99.90
29813;DHT22;16707;48.106;11.548;2022-12-07T09:55:16;5.40;99.90
29813;DHT22;16707;48.106;11.548;2022-12-07T09:57:47;5.40;99.90
29813;DHT22;16707;48.106;11.548;2022-12-07T10:00:16;5.50;99.90
29813;DHT22;16707;48.106;11.548;2022-12-07T10:02:49;5.50;99.90
29813;DHT22;16707;48.106;11.548;2022-12-07T10:05:19;5.50;99.90
29813;DHT22;16707;48.106;11.548;2022-12-07T10:07:48;5.60;99.90
29813;DHT22;16707;48.106;11.548;2022-12-07T10:10:19;5.60;99.90
29813;DHT22;16707;48.106;11.548;2022-12-07T10:12:57;5.80;99.90
29813;DHT22;16707;48.106;11.548;2022-12-07T10:15:42;5.60;99.90
29813;DHT22;16707;48.106;11.548;2022-12-07T10:18:19;5.60;99.90
29813;DHT22;16707;48.106;11.548;2022-12-07T10:20:47;5.70;99.90
29813;DHT22;16707;48.106;11.548;2022-12-07T10:23:16;5.60;99.90
29813;DHT22;16707;48.106;11.548;2022-12-07T10:25:44;5.70;99.90
29813;DHT22;16707;48.106;11.548;2022-12-07T10:28:17;5.80;99.90
29813;DHT22;16707;48.106;11.548;2022-12-07T10:30:54;5.90;99.90
29813;DHT22;16707;48.106;11.548;2022-12-07T10:33:35;5.80;99.90
29813;DHT22;16707;48.106;11.548;2022-12-07T10:36:18;5.60;99.90
29813;DHT22;16707;48.106;11.548;2022-12-07T10:38:49;5.60;99.90
29813;DHT22;16707;48.106;11.548;2022-12-07T10:41:18;5.60;99.90
29813;DHT22;16707;48.106;11.548;2022-12-07T10:43:52;5.90;99.90
29813;DHT22;16707;48.106;11.548;2022-12-07T10:46:48;6.00;99.90
29813;DHT22;16707;48.106;11.548;2022-12-07T10:49:42;6.20;99.90
29813;DHT22;16707;48.106;11.548;2022-12-07T10:52:19;6.10;99.90
29813;DHT22;16707;48.106;11.548;2022-12-07T10:55:02;5.90;99.90
29813;DHT22;16707;48.106;11.548;2022-12-07T10:57:45;5.80;99.90
29813;DHT22;16707;48.106;11.548;2022-12-07T11:00:18;5.70;99.90
29813;DHT22;16707;48.106;11.548;2022-12-07T11:03:07;5.80;99.90
29813;DHT22;16707;48.106;11.548;2022-12-07T11:05:41;5.70;99.90
29813;DHT22;16707;48.106;11.548;2022-12-07T11:08:21;5.50;99.90
29813;DHT22;16707;48.106;11.548;2022-12-07T11:10:57;5.50;99.90
29813;DHT22;16707;48.106;11.548;2022-12-07T11:13:32;5.30;99.90
29813;DHT22;16707;48.106;11.548;2022-12-07T11:16:23;5.20;99.90
29813;DHT22;16707;48.106;11.548;2022-12-07T11:19:13;5.10;99.90
29813;DHT22;16707;48.106;11.548;2022-12-07T11:21:56;5.20;99.90
29813;DHT22;16707;48.106;11.548;2022-12-07T11:24:27;5.30;99.90
29813;DHT22;16707;48.106;11.548;2022-12-07T11:27:12;5.30;99.90
29813;DHT22;16707;48.106;11.548;2022-12-07T11:29:49;5.50;99.90
29813;DHT22;16707;48.106;11.548;2022-12-07T11:32:23;5.60;99.90
29813;DHT22;16707;48.106;11.548;2022-12-07T11:34:59;5.60;99.90
29813;DHT22;16707;48.106;11.548;2022-12-07T11:37:34;5.90;99.90
29813;DHT22;16707;48.106;11.548;2022-12-07T11:40:05;6.20;99.90
29813;DHT22;16707;48.106;11.548;2022-12-07T11:42:42;6.50;99.90
29813;DHT22;16707;48.106;11.548;2022-12-07T11:45:15;6.90;99.90
29813;DHT22;16707;48.106;11.548;2022-12-07T11:47:47;7.00;99.90
29813;DHT22;16707;48.106;11.548;2022-12-07T11:50:26;7.00;97.60
29813;DHT22;16707;48.106;11.548;2022-12-07T11:52:58;6.70;96.40
29813;DHT22;16707;48.106;11.548;2022-12-07T11:55:30;6.50;96.60
29813;DHT22;16707;48.106;11.548;2022-12-07T11:58:08;6.40;96.60
29813;DHT22;16707;48.106;11.548;2022-12-07T12:00:41;6.10;97.50
29813;DHT22;16707;48.106;11.548;2022-12-07T12:03:12;5.90;99.20
29813;DHT22;16707;48.106;11.548;2022-12-07T12:05:44;5.60;99.10
29813;DHT22;16707;48.106;11.548;2022-12-07T12:08:17;5.60;99.70
29813;DHT22;16707;48.106;11.548;2022-12-07T12:10:54;5.50;99.80
29813;DHT22;16707;48.106;11.548;2022-12-07T12:13:52;5.60;99.90
29813;DHT22;16707;48.106;11.548;2022-12-07T12:16:44;5.70;99.90
29813;DHT22;16707;48.106;11.548;2022-12-07T12:19:23;5.80;99.90
29813;DHT22;16707;48.106;11.548;2022-12-07T12:21:57;5.90;99.90
29813;DHT22;16707;48.106;11.548;2022-12-07T12:24:29;6.30;99.90
29813;DHT22;16707;48.106;11.548;2022-12-07T12:27:07;6.50;99.70
29813;DHT22;16707;48.106;11.548;2022-12-07T12:29:36;6.80;98.10
29813;DHT22;16707;48.106;11.548;2022-12-07T12:32:16;6.80;97.50
29813;DHT22;16707;48.106;11.548;2022-12-07T12:35:00;6.70;97.50
29813;DHT22;16707;48.106;11.548;2022-12-07T12:37:45;6.60;98.00
29813;DHT22;16707;48.106;11.548;2022-12-07T12:40:40;6.40;98.20
29813;DHT22;16707;48.106;11.548;2022-12-07T12:45:49;6.30;99.40
29813;DHT22;16707;48.106;11.548;2022-12-07T12:48:29;6.40;99.90
29813;DHT22;16707;48.106;11.548;2022-12-07T12:54:14;6.60;99.90
29813;DHT22;16707;48.106;11.548;2022-12-07T12:56:46;6.60;99.90
29813;DHT22;16707;48.106;11.548;2022-12-07T12:59:26;6.30;99.90
29813;DHT22;16707;48.106;11.548;2022-12-07T13:02:06;6.20;99.90
29813;DHT22;16707;48.106;11.548;2022-12-07T13:05:00;6.30;99.90
29813;DHT22;16707;48.106;11.548;2022-12-07T13:07:51;6.20;99.90
29813;DHT22;16707;48.106;11.548;2022-12-07T13:10:44;6.20;99.90
29813;DHT22;16707;48.106;11.548;2022-12-07T13:13:32;6.10;99.90
29813;DHT22;16707;48.106;11.548;2022-12-07T13:22:42;5.80;99.90
29813;DHT22;16707;48.106;11.548;2022-12-07T13:25:12;6.10;99.90
29813;DHT22;16707;48.106;11.548;2022-12-07T13:27:54;6.40;99.90
29813;DHT22;16707;48.106;11.548;2022-12-07T13:30:22;6.40;99.90
29813;DHT22;16707;48.106;11.548;2022-12-07T13:32:54;6.30;99.90
29813;DHT22;16707;48.106;11.548;2022-12-07T13:35:30;6.30;99.90
29813;DHT22;16707;48.106;11.548;2022-12-07T13:37:57;6.50;99.90
29813;DHT22;16707;48.106;11.548;2022-12-07T13:40:24;6.60;99.90
29813;DHT22;16707;48.106;11.548;2022-12-07T13:42:59;6.60;99.90
29813;DHT22;16707;48.106;11.548;2022-12-07T13:45:28;6.70;99.90
29813;DHT22;16707;48.106;11.548;2022-12-07T13:48:14;6.80;99.90
29813;DHT22;16707;48.106;11.548;2022-12-07T13:50:42;6.90;99.90
29813;DHT22;16707;48.106;11.548;2022-12-07T13:53:12;6.90;99.90
29813;DHT22;16707;48.106;11.548;2022-12-07T13:55:45;6.60;99.80
29813;DHT22;16707;48.106;11.548;2022-12-07T13:58:14;6.50;99.90
29813;DHT22;16707;48.106;11.548;2022-12-07T14:00:42;6.40;99.90
29813;DHT22;16707;48.106;11.548;2022-12-07T14:03:31;6.30;99.90
29813;DHT22;16707;48.106;11.548;2022-12-07T14:06:16;6.10;99.90
29813;DHT22;16707;48.106;11.548;2022-12-07T14:08:44;5.90;99.90
29813;DHT22;16707;48.106;11.548;2022-12-07T14:11:16;5.70;99.90
29813;DHT22;16707;48.106;11.548;2022-12-07T14:13:58;5.60;99.90
29813;DHT22;16707;48.106;11.548;2022-12-07T14:16:28;5.50;99.90
29813;DHT22;16707;48.106;11.548;2022-12-07T14:18:57;5.40;99.90
29813;DHT22;16707;48.106;11.548;2022-12-07T14:21:26;5.40;99.90
29813;DHT22;16707;48.106;11.548;2022-12-07T14:24:11;5.40;99.90
29813;DHT22;16707;48.106;11.548;2022-12-07T14:26:40;5.40;99.90
29813;DHT22;16707;48.106;11.548;2022-12-07T14:29:22;5.40;99.90
29813;DHT22;16707;48.106;11.548;2022-12-07T14:31:56;5.40;99.90
29813;DHT22;16707;48.106;11.548;2022-12-07T14:34:24;5.20;99.90
29813;DHT22;16707;48.106;11.548;2022-12-07T14:36:51;5.10;99.90
29813;DHT22;16707;48.106;11.548;2022-12-07T14:39:18;5.00;99.90
29813;DHT22;16707;48.106;11.548;2022-12-07T14:41:46;4.90;99.90
29813;DHT22;16707;48.106;11.548;2022-12-07T14:44:21;4.80;99.90
29813;DHT22;16707;48.106;11.548;2022-12-07T14:46:49;4.60;99.90
29813;DHT22;16707;48.106;11.548;2022-12-07T14:49:17;4.50;99.90
29813;DHT22;16707;48.106;11.548;2022-12-07T14:51:45;4.30;99.90
29813;DHT22;16707;48.106;11.548;2022-12-07T14:54:15;4.10;99.90
29813;DHT22;16707;48.106;11.548;2022-12-07T14:56:43;3.90;99.90
29813;DHT22;16707;48.106;11.548;2022-12-07T14:59:11;3.80;99.90
29813;DHT22;16707;48.106;11.548;2022-12-07T15:01:40;3.70;99.90
29813;DHT22;16707;48.106;11.548;2022-12-07T15:04:07;3.50;99.90
29813;DHT22;16707;48.106;11.548;2022-12-07T15:06:34;3.30;99.90
29813;DHT22;16707;48.106;11.548;2022-12-07T15:09:01;3.20;99.90
29813;DHT22;16707;48.106;11.548;2022-12-07T15:11:28;3.00;99.90
29813;DHT22;16707;48.106;11.548;2022-12-07T15:13:55;2.90;99.90
29813;DHT22;16707;48.106;11.548;2022-12-07T15:16:40;2.70;99.90
29813;DHT22;16707;48.106;11.548;2022-12-07T15:19:12;2.60;99.90
29813;DHT22;16707;48.106;11.548;2022-12-07T15:21:41;2.50;99.90
29813;DHT22;16707;48.106;11.548;2022-12-07T15:24:09;2.50;99.90
29813;DHT22;16707;48.106;11.548;2022-12-07T15:26:39;2.40;99.90
29813;DHT22;16707;48.106;11.548;2022-12-07T15:29:09;2.30;99.90
29813;DHT22;16707;48.106;11.548;2022-12-07T15:31:37;2.20;99.90
29813;DHT22;16707;48.106;11.548;2022-12-07T15:34:05;2.20;99.90
29813;DHT22;16707;48.106;11.548;2022-12-07T15:36:34;2.10;99.90
29813;DHT22;16707;48.106;11.548;2022-12-07T15:39:02;2.10;99.90
29813;DHT22;16707;48.106;11.548;2022-12-07T15:41:29;2.10;99.90
29813;DHT22;16707;48.106;11.548;2022-12-07T15:43:56;2.10;99.90
29813;DHT22;16707;48.106;11.548;2022-12-07T15:46:41;2.20;99.90
29813;DHT22;16707;48.106;11.548;2022-12-07T15:49:18;2.30;99.90
29813;DHT22;16707;48.106;11.548;2022-12-07T15:51:48;2.50;99.90
29813;DHT22;16707;48.106;11.548;2022-12-07T15:54:19;2.70;99.90
29813;DHT22;16707;48.106;11.548;2022-12-07T15:56:47;2.70;99.90
29813;DHT22;16707;48.106;11.548;2022-12-07T15:59:15;2.60;99.90
29813;DHT22;16707;48.106;11.548;2022-12-07T16:01:42;2.50;99.90
29813;DHT22;16707;48.106;11.548;2022-12-07T16:04:12;2.40;99.90
29813;DHT22;16707;48.106;11.548;2022-12-07T16:06:39;2.20;99.90
29813;DHT22;16707;48.106;11.548;2022-12-07T16:09:07;2.10;99.90
29813;DHT22;16707;48.106;11.548;2022-12-07T16:11:34;1.90;99.90
29813;DHT22;16707;48.106;11.548;2022-12-07T16:14:01;1.80;99.90